Time;durP1;ratioP1;P1;durP2;ratioP2;P2;SDS_P1;SDS_P2;PMS_P1;PMS_P2;Temp;Humidity;BMP_temperature;BMP_pressure;BME280_temperature;BME280_humidity;BME280_pressure;Samples;Min_cycle;Max_cycle;Signal;HPM_P1;HPM_P2
2023/10/20 00:00:15;;;;;;;6.40;5.80;;;;;;;;;;465985;28;1258;-69
2023/10/20 00:00:33;;;;;;;6.70;6.10;;;;;;;;;;465937;28;1328;-69
2023/10/20 00:00:51;;;;;;;6.95;6.25;;;;;;;;;;465059;28;1692;-69
2023/10/20 00:01:13;;;;;;;7.30;6.25;;;;;;;;;;465523;28;1052;-69
2023/10/20 00:01:28;;;;;;;6.95;6.25;;;;;;;;;;465386;28;1055;-69
2023/10/20 00:02:16;;;;;;;7.30;6.60;;;;;;;;;;462245;28;931;-69
2023/10/20 00:02:40;;;;;;;7.15;6.45;;;;;;;;;;458316;28;1240;-69
2023/10/20 00:03:02;;;;;;;7.03;6.32;;;;;;;;;;458750;28;1095;-69
2023/10/20 00:03:27;;;;;;;7.00;6.30;;;;;;;;;;459273;28;946;-69
2023/10/20 00:03:54;;;;;;;7.03;6.43;;;;;;;;;;462613;28;1328;-69
2023/10/20 00:04:31;;;;;;;7.10;6.40;;;;;;;;;;465415;28;906;-69
2023/10/20 00:04:56;;;;;;;7.55;6.85;;;;;;;;;;465539;28;953;-69
2023/10/20 00:05:24;;;;;;;7.50;6.80;;;;;;;;;;465561;28;1093;-69
2023/10/20 00:05:42;;;;;;;7.13;6.43;;;;;;;;;;464950;28;1213;-69
2023/10/20 00:06:01;;;;;;;6.85;6.25;;;;;;;;;;465790;28;996;-69
2023/10/20 00:07:03;;;;;;;7.38;6.68;;;;;;;;;;464253;28;1085;-69
2023/10/20 00:07:25;;;;;;;7.35;6.65;;;;;;;;;;458209;28;1226;-69
2023/10/20 00:07:43;;;;;;;7.47;6.78;;;;;;;;;;458060;28;1201;-69
2023/10/20 00:08:07;;;;;;;7.18;6.47;;;;;;;;;;457883;29;1297;-69
2023/10/20 00:08:25;;;;;;;8.13;6.93;;;;;;;;;;459890;28;1217;-69
2023/10/20 00:08:59;;;;;;;7.60;6.80;;;;;;;;;;460046;28;1244;-69
2023/10/20 00:09:19;;;;;;;6.97;6.30;;;;;;;;;;459120;28;998;-69
2023/10/20 00:09:46;;;;;;;6.80;6.20;;;;;;;;;;457851;29;935;-69
2023/10/20 00:10:03;;;;;;;6.97;6.28;;;;;;;;;;459774;28;1935;-70
2023/10/20 00:10:22;;;;;;;7.30;6.60;;;;;;;;;;460149;28;926;-69
2023/10/20 00:10:37;;;;;;;7.60;6.80;;;;;;;;;;459673;28;1043;-69
2023/10/20 00:10:57;;;;;;;7.53;6.83;;;;;;;;;;459636;28;970;-69
2023/10/20 00:11:25;;;;;;;6.75;6.15;;;;;;;;;;457824;28;1593;-69
2023/10/20 00:11:47;;;;;;;6.10;5.50;;;;;;;;;;458342;29;1376;-69
2023/10/20 00:12:04;;;;;;;7.30;6.60;;;;;;;;;;456508;29;1629;-69
2023/10/20 00:12:54;;;;;;;7.95;7.20;;;;;;;;;;456169;29;1218;-69
2023/10/20 00:13:19;;;;;;;7.63;6.82;;;;;;;;;;456445;29;1061;-69
2023/10/20 00:13:50;;;;;;;7.45;6.75;;;;;;;;;;457065;29;1210;-69
2023/10/20 00:14:08;;;;;;;6.63;6.03;;;;;;;;;;459721;28;1186;-69
2023/10/20 00:14:26;;;;;;;6.72;6.13;;;;;;;;;;459991;28;2056;-69
2023/10/20 00:15:09;;;;;;;6.90;6.20;;;;;;;;;;459524;28;1114;-69
2023/10/20 00:15:25;;;;;;;6.68;6.07;;;;;;;;;;459050;28;1651;-69
2023/10/20 00:15:46;;;;;;;6.75;6.15;;;;;;;;;;460535;28;999;-69
2023/10/20 00:16:44;;;;;;;7.25;6.55;;;;;;;;;;457700;29;1034;-69
2023/10/20 00:17:11;;;;;;;7.00;6.30;;;;;;;;;;456417;29;1085;-69
2023/10/20 00:17:33;;;;;;;7.63;6.88;;;;;;;;;;457467;29;908;-69
2023/10/20 00:18:01;;;;;;;7.30;6.60;;;;;;;;;;458532;29;1019;-69
2023/10/20 00:18:16;;;;;;;6.88;6.28;;;;;;;;;;459778;28;1237;-69
2023/10/20 00:18:31;;;;;;;6.57;5.97;;;;;;;;;;460206;28;1140;-69
2023/10/20 00:18:47;;;;;;;6.47;5.87;;;;;;;;;;460912;28;1271;-69
2023/10/20 00:19:08;;;;;;;6.35;5.78;;;;;;;;;;460691;28;911;-69
2023/10/20 00:19:29;;;;;;;6.20;5.70;;;;;;;;;;460440;28;1233;-69
2023/10/20 00:19:57;;;;;;;6.32;5.80;;;;;;;;;;460511;28;943;-69
2023/10/20 00:20:15;;;;;;;6.60;5.90;;;;;;;;;;467660;28;1189;-69
2023/10/20 00:20:30;;;;;;;6.95;6.22;;;;;;;;;;467337;28;1183;-69
2023/10/20 00:20:49;;;;;;;7.07;6.27;;;;;;;;;;465707;28;1236;-69
2023/10/20 00:21:26;;;;;;;6.70;5.97;;;;;;;;;;465705;28;1279;-69
2023/10/20 00:21:45;;;;;;;6.50;5.90;;;;;;;;;;466171;28;926;-70
2023/10/20 00:22:00;;;;;;;6.45;5.85;;;;;;;;;;465073;28;1043;-69
2023/10/20 00:22:21;;;;;;;5.70;5.20;;;;;;;;;;465821;28;1001;-69
2023/10/20 00:23:14;;;;;;;6.25;5.65;;;;;;;;;;463880;28;1189;-69
2023/10/20 00:23:29;;;;;;;7.40;6.55;;;;;;;;;;464848;28;1057;-69
2023/10/20 00:23:45;;;;;;;7.50;6.77;;;;;;;;;;463536;28;1148;-69
2023/10/20 00:24:06;;;;;;;7.25;6.63;;;;;;;;;;464195;28;1037;-69
2023/10/20 00:24:25;;;;;;;7.05;6.40;;;;;;;;;;463552;28;1128;-69
2023/10/20 00:25:11;;;;;;;7.00;6.30;;;;;;;;;;465238;28;1258;-69
2023/10/20 00:25:29;;;;;;;6.95;6.35;;;;;;;;;;465327;28;1131;-69
2023/10/20 00:25:44;;;;;;;7.45;6.45;;;;;;;;;;464444;28;1093;-69
2023/10/20 00:25:59;;;;;;;7.80;6.63;;;;;;;;;;463558;28;913;-69
2023/10/20 00:26:36;;;;;;;7.40;6.70;;;;;;;;;;463001;28;873;-69
2023/10/20 00:27:09;;;;;;;6.88;6.28;;;;;;;;;;464092;28;1195;-69
2023/10/20 00:27:41;;;;;;;6.53;5.93;;;;;;;;;;464748;28;958;-69
2023/10/20 00:27:56;;;;;;;6.50;5.90;;;;;;;;;;468111;28;1530;-69
2023/10/20 00:28:12;;;;;;;6.80;6.13;;;;;;;;;;467578;28;930;-69
2023/10/20 00:28:27;;;;;;;7.30;6.60;;;;;;;;;;464925;28;1183;-69
2023/10/20 00:28:51;;;;;;;7.65;6.82;;;;;;;;;;465439;28;1053;-69
2023/10/20 00:29:25;;;;;;;7.88;7.07;;;;;;;;;;465539;28;1022;-69
2023/10/20 00:29:40;;;;;;;9.43;7.10;;;;;;;;;;465638;28;1084;-69
2023/10/20 00:30:07;;;;;;;7.70;6.90;;;;;;;;;;464917;28;1149;-69
2023/10/20 00:30:31;;;;;;;7.32;6.63;;;;;;;;;;464938;28;1485;-69
2023/10/20 00:30:47;;;;;;;7.00;6.30;;;;;;;;;;463375;28;1276;-70
2023/10/20 00:31:29;;;;;;;6.50;5.90;;;;;;;;;;463879;28;1218;-70
2023/10/20 00:31:44;;;;;;;6.00;5.40;;;;;;;;;;464482;28;1627;-69
2023/10/20 00:32:30;;;;;;;6.20;5.60;;;;;;;;;;465448;28;1481;-69
2023/10/20 00:32:46;;;;;;;6.90;6.30;;;;;;;;;;467802;28;1628;-69
2023/10/20 00:33:23;;;;;;;7.10;6.50;;;;;;;;;;465424;28;1429;-69
2023/10/20 00:33:45;;;;;;;6.93;6.22;;;;;;;;;;464130;28;1371;-69
2023/10/20 00:34:19;;;;;;;6.90;6.30;;;;;;;;;;465316;28;1181;-69
2023/10/20 00:34:53;;;;;;;7.28;6.22;;;;;;;;;;465475;28;1344;-69
2023/10/20 00:35:45;;;;;;;6.82;6.22;;;;;;;;;;463547;28;1069;-69
2023/10/20 00:36:34;;;;;;;6.32;5.72;;;;;;;;;;465366;28;1283;-69
2023/10/20 00:37:12;;;;;;;6.72;5.85;;;;;;;;;;465277;28;1211;-69
2023/10/20 00:37:42;;;;;;;7.20;6.50;;;;;;;;;;466884;28;1450;-69
2023/10/20 00:38:01;;;;;;;7.47;6.60;;;;;;;;;;467190;28;2451;-69
2023/10/20 00:38:19;;;;;;;7.10;6.43;;;;;;;;;;465897;28;1173;-69
2023/10/20 00:38:37;;;;;;;7.03;6.43;;;;;;;;;;464308;28;1304;-69
2023/10/20 00:39:07;;;;;;;7.38;6.68;;;;;;;;;;462872;28;1417;-69
2023/10/20 00:39:26;;;;;;;6.80;6.20;;;;;;;;;;462760;28;1313;-69
2023/10/20 00:39:45;;;;;;;6.28;5.68;;;;;;;;;;463222;28;1399;-69
2023/10/20 00:40:10;;;;;;;6.47;5.88;;;;;;;;;;462019;28;1181;-69
2023/10/20 00:40:31;;;;;;;7.28;6.57;;;;;;;;;;462647;28;1257;-69
2023/10/20 00:40:59;;;;;;;7.28;6.60;;;;;;;;;;461854;28;1037;-69
2023/10/20 00:41:56;;;;;;;6.95;6.30;;;;;;;;;;462158;28;1332;-69
2023/10/20 00:42:26;;;;;;;7.57;6.60;;;;;;;;;;462165;28;1945;-69
2023/10/20 00:42:48;;;;;;;7.47;6.78;;;;;;;;;;471871;28;1251;-69
2023/10/20 00:43:06;;;;;;;7.55;6.78;;;;;;;;;;473517;28;1498;-69
2023/10/20 00:43:21;;;;;;;7.88;7.07;;;;;;;;;;473391;28;1203;-69
2023/10/20 00:43:53;;;;;;;7.45;6.75;;;;;;;;;;471288;28;1238;-69
2023/10/20 00:44:09;;;;;;;7.57;6.80;;;;;;;;;;472302;28;1381;-69
2023/10/20 00:44:24;;;;;;;7.10;6.40;;;;;;;;;;473003;28;1371;-69
2023/10/20 00:44:40;;;;;;;6.60;6.00;;;;;;;;;;472547;28;1277;-69
2023/10/20 00:44:58;;;;;;;6.60;6.00;;;;;;;;;;473274;28;1233;-69
2023/10/20 00:45:26;;;;;;;6.90;6.20;;;;;;;;;;472094;28;1592;-69
2023/10/20 00:45:45;;;;;;;7.70;6.60;;;;;;;;;;474091;27;1526;-69
2023/10/20 00:46:17;;;;;;;7.40;6.40;;;;;;;;;;473814;28;1304;-69
2023/10/20 00:46:35;;;;;;;7.00;6.30;;;;;;;;;;472679;28;1362;-69
2023/10/20 00:46:50;;;;;;;6.68;6.00;;;;;;;;;;470640;28;1247;-69
2023/10/20 00:47:09;;;;;;;6.97;6.27;;;;;;;;;;470829;28;1463;-69
2023/10/20 00:47:28;;;;;;;6.85;6.15;;;;;;;;;;471143;28;1411;-69
2023/10/20 00:47:47;;;;;;;5.95;5.43;;;;;;;;;;470452;28;1333;-69
2023/10/20 00:48:12;;;;;;;5.70;5.20;;;;;;;;;;470759;28;1301;-69
2023/10/20 00:48:46;;;;;;;6.35;5.75;;;;;;;;;;470541;28;1243;-69
2023/10/20 00:49:04;;;;;;;6.22;5.63;;;;;;;;;;472611;28;1211;-70
2023/10/20 00:49:29;;;;;;;6.50;5.60;;;;;;;;;;473641;28;1274;-69
2023/10/20 00:50:11;;;;;;;6.85;6.00;;;;;;;;;;472277;28;1286;-69
2023/10/20 00:50:30;;;;;;;6.18;5.57;;;;;;;;;;469400;28;1712;-69
2023/10/20 00:51:38;;;;;;;6.22;5.63;;;;;;;;;;470893;28;1035;-69
2023/10/20 00:52:15;;;;;;;6.20;5.60;;;;;;;;;;473260;28;1602;-69
2023/10/20 00:52:37;;;;;;;6.13;5.50;;;;;;;;;;472280;28;1029;-69
2023/10/20 00:52:56;;;;;;;6.28;5.68;;;;;;;;;;473216;28;1008;-69
2023/10/20 00:53:29;;;;;;;6.25;5.65;;;;;;;;;;473152;28;1147;-69
2023/10/20 00:53:55;;;;;;;5.43;4.93;;;;;;;;;;473185;28;1383;-69
2023/10/20 00:54:23;;;;;;;5.25;4.75;;;;;;;;;;473042;28;1439;-69
2023/10/20 00:54:44;;;;;;;5.32;4.30;;;;;;;;;;473189;28;1798;-69
2023/10/20 00:55:00;;;;;;;5.00;4.50;;;;;;;;;;471511;28;1202;-69
2023/10/20 00:55:15;;;;;;;5.30;4.50;;;;;;;;;;471133;28;850;-69
2023/10/20 00:55:36;;;;;;;4.97;4.32;;;;;;;;;;471027;28;1326;-69
2023/10/20 00:55:52;;;;;;;5.15;4.35;;;;;;;;;;471599;28;1227;-69
2023/10/20 00:56:22;;;;;;;5.03;4.32;;;;;;;;;;470619;28;1120;-69
2023/10/20 00:56:37;;;;;;;5.00;4.50;;;;;;;;;;467744;28;1067;-69
2023/10/20 00:57:08;;;;;;;5.23;4.50;;;;;;;;;;465993;28;1201;-69
2023/10/20 00:57:30;;;;;;;5.32;4.80;;;;;;;;;;467957;28;965;-69
2023/10/20 00:57:54;;;;;;;5.43;4.93;;;;;;;;;;466021;28;1021;-69
2023/10/20 00:58:09;;;;;;;5.38;4.88;;;;;;;;;;467082;28;2120;-69
2023/10/20 00:58:33;;;;;;;5.30;4.80;;;;;;;;;;466702;28;1222;-69
2023/10/20 00:58:55;;;;;;;4.95;4.45;;;;;;;;;;471021;28;941;-69
2023/10/20 00:59:13;;;;;;;5.78;4.32;;;;;;;;;;469522;28;1079;-69
2023/10/20 00:59:37;;;;;;;5.20;4.53;;;;;;;;;;469764;28;1000;-69
2023/10/20 00:59:53;;;;;;;5.63;4.60;;;;;;;;;;472429;28;975;-69
2023/10/20 01:00:17;;;;;;;5.50;4.50;;;;;;;;;;471897;28;1234;-69
2023/10/20 01:00:35;;;;;;;6.05;4.57;;;;;;;;;;473638;28;1574;-69
2023/10/20 01:00:54;;;;;;;5.82;4.70;;;;;;;;;;470887;28;1629;-69
2023/10/20 01:01:14;;;;;;;5.00;4.53;;;;;;;;;;469728;28;1218;-69
2023/10/20 01:01:31;;;;;;;5.88;4.80;;;;;;;;;;468677;28;1811;-69
2023/10/20 01:02:30;;;;;;;5.70;4.90;;;;;;;;;;466533;28;890;-69
2023/10/20 01:03:04;;;;;;;5.70;5.10;;;;;;;;;;471319;28;944;-69
2023/10/20 01:03:38;;;;;;;5.25;4.75;;;;;;;;;;473351;28;1570;-69
2023/10/20 01:03:53;;;;;;;5.43;4.93;;;;;;;;;;476047;27;1124;-69
2023/10/20 01:04:31;;;;;;;5.40;4.90;;;;;;;;;;472715;28;1104;-69
2023/10/20 01:04:49;;;;;;;5.70;4.78;;;;;;;;;;473614;28;1496;-69
2023/10/20 01:05:54;;;;;;;5.68;4.60;;;;;;;;;;473658;28;884;-69
2023/10/20 01:06:12;;;;;;;5.80;4.90;;;;;;;;;;472817;28;1069;-69
2023/10/20 01:06:49;;;;;;;5.57;4.97;;;;;;;;;;472655;28;948;-69
2023/10/20 01:07:07;;;;;;;5.68;5.00;;;;;;;;;;472289;28;1515;-69
2023/10/20 01:07:24;;;;;;;5.65;5.13;;;;;;;;;;471107;28;1092;-69
2023/10/20 01:07:49;;;;;;;5.45;4.95;;;;;;;;;;469708;28;1167;-69
2023/10/20 01:08:40;;;;;;;5.32;4.82;;;;;;;;;;468885;28;1132;-69
2023/10/20 01:08:59;;;;;;;5.18;4.68;;;;;;;;;;461935;28;1210;-69
2023/10/20 01:09:46;;;;;;;5.28;4.78;;;;;;;;;;462543;28;1423;-69
2023/10/20 01:10:56;;;;;;;5.15;4.45;;;;;;;;;;466306;28;1024;-69
2023/10/20 01:11:11;;;;;;;4.70;4.22;;;;;;;;;;465583;28;1964;-69
2023/10/20 01:11:33;;;;;;;4.30;3.90;;;;;;;;;;464756;28;1080;-69
2023/10/20 01:11:55;;;;;;;3.90;3.60;;;;;;;;;;465104;28;925;-69
2023/10/20 01:12:13;;;;;;;4.32;3.92;;;;;;;;;;465143;28;1342;-69
2023/10/20 01:12:28;;;;;;;4.80;4.30;;;;;;;;;;465921;28;930;-69
2023/10/20 01:12:49;;;;;;;5.93;4.40;;;;;;;;;;466137;28;1029;-69
2023/10/20 01:13:17;;;;;;;5.85;4.50;;;;;;;;;;463000;28;1068;-69
2023/10/20 01:13:57;;;;;;;5.38;4.35;;;;;;;;;;463695;28;1468;-69
2023/10/20 01:14:12;;;;;;;4.68;4.28;;;;;;;;;;462825;28;1301;-69
2023/10/20 01:14:27;;;;;;;4.93;4.43;;;;;;;;;;461833;28;1148;-69
2023/10/20 01:14:55;;;;;;;4.90;4.23;;;;;;;;;;462175;28;1688;-69
2023/10/20 01:15:27;;;;;;;6.30;4.32;;;;;;;;;;462871;28;874;-69
2023/10/20 01:15:49;;;;;;;4.72;4.25;;;;;;;;;;465770;28;906;-69
2023/10/20 01:16:04;;;;;;;4.68;4.05;;;;;;;;;;465903;28;1154;-69
2023/10/20 01:16:55;;;;;;;5.03;3.90;;;;;;;;;;467847;28;885;-69
2023/10/20 01:17:13;;;;;;;4.72;4.30;;;;;;;;;;460801;28;1298;-69
2023/10/20 01:17:32;;;;;;;4.50;4.10;;;;;;;;;;460594;28;1096;-69
2023/10/20 01:18:09;;;;;;;4.70;4.20;;;;;;;;;;461125;28;1421;-69
2023/10/20 01:18:27;;;;;;;4.78;4.10;;;;;;;;;;460437;28;1518;-69
2023/10/20 01:18:45;;;;;;;4.68;4.20;;;;;;;;;;461090;28;982;-69
2023/10/20 01:19:01;;;;;;;4.40;4.00;;;;;;;;;;460961;28;1267;-69
2023/10/20 01:19:16;;;;;;;4.30;3.90;;;;;;;;;;460661;28;869;-69
2023/10/20 01:19:36;;;;;;;4.20;3.80;;;;;;;;;;461030;28;977;-69
2023/10/20 01:19:52;;;;;;;4.20;3.80;;;;;;;;;;459729;28;1188;-69
2023/10/20 01:20:41;;;;;;;4.22;3.60;;;;;;;;;;459828;28;1011;-69
2023/10/20 01:21:24;;;;;;;4.87;4.00;;;;;;;;;;459039;28;1926;-69
2023/10/20 01:22:10;;;;;;;3.95;3.55;;;;;;;;;;459882;28;1732;-69
2023/10/20 01:23:09;;;;;;;4.45;4.00;;;;;;;;;;460066;28;1036;-69
2023/10/20 01:24:10;;;;;;;4.15;3.75;;;;;;;;;;455104;29;1848;-69
2023/10/20 01:24:29;;;;;;;5.33;4.10;;;;;;;;;;456004;29;1241;-69
2023/10/20 01:24:48;;;;;;;5.35;4.05;;;;;;;;;;458134;29;1166;-69
2023/10/20 01:25:26;;;;;;;4.07;3.67;;;;;;;;;;458472;29;1163;-69
2023/10/20 01:25:44;;;;;;;4.05;3.70;;;;;;;;;;458259;29;1306;-69
2023/10/20 01:26:03;;;;;;;4.03;3.72;;;;;;;;;;460361;28;1495;-69
2023/10/20 01:26:37;;;;;;;4.10;3.70;;;;;;;;;;457056;29;1140;-69
2023/10/20 01:26:52;;;;;;;4.20;3.80;;;;;;;;;;460182;28;1157;-69
2023/10/20 01:27:26;;;;;;;4.23;3.83;;;;;;;;;;459347;28;1288;-69
2023/10/20 01:27:48;;;;;;;3.70;3.40;;;;;;;;;;459350;28;1011;-69
2023/10/20 01:28:06;;;;;;;4.20;3.10;;;;;;;;;;457006;29;1838;-69
2023/10/20 01:28:24;;;;;;;3.60;2.88;;;;;;;;;;459411;28;1354;-69
2023/10/20 01:28:42;;;;;;;3.20;2.85;;;;;;;;;;460483;28;1260;-69
2023/10/20 01:29:36;;;;;;;4.03;2.78;;;;;;;;;;459944;28;1129;-69
2023/10/20 01:29:57;;;;;;;2.63;2.42;;;;;;;;;;457300;29;2022;-69
2023/10/20 01:30:15;;;;;;;3.70;2.30;;;;;;;;;;455563;29;2991;-69
2023/10/20 01:30:37;;;;;;;4.15;2.30;;;;;;;;;;454996;29;1784;-69
2023/10/20 01:31:14;;;;;;;3.42;2.30;;;;;;;;;;459796;28;1218;-69
2023/10/20 01:31:38;;;;;;;2.72;2.22;;;;;;;;;;460001;28;1155;-69
2023/10/20 01:32:00;;;;;;;2.50;2.30;;;;;;;;;;457784;29;939;-69
2023/10/20 01:32:15;;;;;;;2.28;2.08;;;;;;;;;;459708;28;1003;-69
2023/10/20 01:32:52;;;;;;;3.65;2.33;;;;;;;;;;459785;28;1072;-69
2023/10/20 01:33:10;;;;;;;2.58;2.38;;;;;;;;;;457695;29;1129;-69
2023/10/20 01:33:31;;;;;;;2.72;2.40;;;;;;;;;;458315;29;1111;-69
2023/10/20 01:33:46;;;;;;;3.47;2.40;;;;;;;;;;458125;29;982;-69
2023/10/20 01:34:05;;;;;;;3.80;2.40;;;;;;;;;;458264;29;1172;-69
2023/10/20 01:34:23;;;;;;;2.55;2.25;;;;;;;;;;458244;29;1533;-69
2023/10/20 01:34:41;;;;;;;2.88;2.20;;;;;;;;;;459556;28;1225;-69
2023/10/20 01:35:13;;;;;;;2.42;2.20;;;;;;;;;;458666;28;1930;-69
2023/10/20 01:35:35;;;;;;;2.97;1.98;;;;;;;;;;459641;28;1562;-69
2023/10/20 01:36:18;;;;;;;2.47;1.95;;;;;;;;;;460790;28;1390;-69
2023/10/20 01:36:46;;;;;;;2.30;2.10;;;;;;;;;;459135;28;1280;-69
2023/10/20 01:37:04;;;;;;;2.67;2.10;;;;;;;;;;458291;29;1188;-69
2023/10/20 01:37:41;;;;;;;2.50;2.10;;;;;;;;;;457848;28;1241;-69
2023/10/20 01:37:56;;;;;;;2.58;1.80;;;;;;;;;;459579;28;1246;-69
2023/10/20 01:39:02;;;;;;;1.90;1.70;;;;;;;;;;460032;28;1942;-69
2023/10/20 01:39:39;;;;;;;2.65;2.10;;;;;;;;;;455563;29;1064;-69
2023/10/20 01:40:09;;;;;;;3.00;2.00;;;;;;;;;;453047;29;1338;-69
2023/10/20 01:40:27;;;;;;;2.72;2.00;;;;;;;;;;450654;29;1389;-69
2023/10/20 01:40:51;;;;;;;2.80;2.00;;;;;;;;;;449031;29;1172;-69
2023/10/20 01:41:09;;;;;;;2.63;1.92;;;;;;;;;;449278;29;1584;-69
2023/10/20 01:41:26;;;;;;;2.97;1.80;;;;;;;;;;451396;29;1312;-69
2023/10/20 01:41:53;;;;;;;2.92;2.00;;;;;;;;;;450152;29;1054;-69
2023/10/20 01:42:09;;;;;;;1.83;1.65;;;;;;;;;;450632;29;1171;-69
2023/10/20 01:42:24;;;;;;;1.73;1.60;;;;;;;;;;452328;29;1102;-69
2023/10/20 01:42:42;;;;;;;2.23;1.73;;;;;;;;;;453787;29;1137;-69
2023/10/20 01:42:57;;;;;;;2.05;1.65;;;;;;;;;;454906;29;1196;-69
2023/10/20 01:43:22;;;;;;;2.15;1.60;;;;;;;;;;452973;29;1191;-69
2023/10/20 01:43:42;;;;;;;3.33;1.92;;;;;;;;;;452045;29;1043;-69
2023/10/20 01:44:24;;;;;;;3.08;2.00;;;;;;;;;;454923;29;995;-69
2023/10/20 01:44:48;;;;;;;2.53;1.90;;;;;;;;;;455660;29;2054;-69
2023/10/20 01:45:05;;;;;;;2.70;1.92;;;;;;;;;;455602;29;1031;-69
2023/10/20 01:45:20;;;;;;;2.92;2.03;;;;;;;;;;453605;29;935;-69
2023/10/20 01:45:41;;;;;;;3.13;1.93;;;;;;;;;;453810;29;1447;-69
2023/10/20 01:46:03;;;;;;;2.70;1.85;;;;;;;;;;453439;29;1321;-69
2023/10/20 01:46:24;;;;;;;3.78;2.00;;;;;;;;;;454410;29;2070;-69
2023/10/20 01:46:49;;;;;;;3.25;1.85;;;;;;;;;;452990;29;1032;-69
2023/10/20 01:47:08;;;;;;;1.90;1.70;;;;;;;;;;457250;28;1133;-69
2023/10/20 01:52:54;;;;;;;2.55;1.80;;;;;;;;;;510469;28;1051;-68
2023/10/20 01:53:09;;;;;;;3.05;1.90;;;;;;;;;;520940;22;2526;-69
2023/10/20 01:53:24;;;;;;;3.10;1.90;;;;;;;;;;526870;22;1868;-69
2023/10/20 01:53:39;;;;;;;2.53;1.70;;;;;;;;;;521872;28;1806;-69
2023/10/20 01:53:55;;;;;;;2.70;1.70;;;;;;;;;;522073;28;1095;-70
2023/10/20 01:54:10;;;;;;;3.10;1.88;;;;;;;;;;523943;28;890;-68
2023/10/20 01:54:26;;;;;;;3.43;1.80;;;;;;;;;;521307;28;1427;-69
2023/10/20 01:54:41;;;;;;;2.85;1.63;;;;;;;;;;522051;28;1285;-69
2023/10/20 01:54:57;;;;;;;2.17;1.67;;;;;;;;;;521778;28;1420;-69
2023/10/20 01:55:12;;;;;;;2.08;1.70;;;;;;;;;;520476;28;1631;-69
2023/10/20 01:55:28;;;;;;;2.07;1.60;;;;;;;;;;520910;28;1929;-69
2023/10/20 01:55:49;;;;;;;2.80;1.80;;;;;;;;;;521510;28;1413;-69
2023/10/20 01:56:04;;;;;;;2.50;1.70;;;;;;;;;;519974;28;1265;-69
2023/10/20 01:56:20;;;;;;;2.57;1.70;;;;;;;;;;518058;28;1265;-69
2023/10/20 01:56:35;;;;;;;2.67;1.80;;;;;;;;;;519542;28;1501;-69
2023/10/20 01:56:51;;;;;;;2.10;1.77;;;;;;;;;;519482;28;1269;-69
2023/10/20 01:57:06;;;;;;;2.60;1.85;;;;;;;;;;519606;28;1799;-69
2023/10/20 01:57:21;;;;;;;3.23;2.00;;;;;;;;;;519408;28;1253;-69
2023/10/20 01:57:36;;;;;;;3.27;2.00;;;;;;;;;;520684;28;1337;-69
2023/10/20 01:57:52;;;;;;;3.10;1.97;;;;;;;;;;521856;28;1209;-69
2023/10/20 01:58:07;;;;;;;2.60;1.90;;;;;;;;;;522021;28;1976;-69
2023/10/20 01:58:23;;;;;;;2.10;1.83;;;;;;;;;;522637;28;1354;-69
2023/10/20 01:58:38;;;;;;;2.08;1.88;;;;;;;;;;520925;28;1204;-69
2023/10/20 01:58:53;;;;;;;2.50;2.03;;;;;;;;;;524001;28;1214;-69
2023/10/20 01:59:09;;;;;;;2.53;2.03;;;;;;;;;;523969;28;1491;-69
2023/10/20 01:59:24;;;;;;;2.40;1.80;;;;;;;;;;524666;28;1412;-69
2023/10/20 01:59:40;;;;;;;2.67;1.80;;;;;;;;;;524008;28;1361;-69
2023/10/20 01:59:55;;;;;;;2.60;1.80;;;;;;;;;;523947;28;1142;-69
2023/10/20 02:00:13;;;;;;;3.20;2.00;;;;;;;;;;524290;28;1434;-69
2023/10/20 02:00:28;;;;;;;2.35;1.85;;;;;;;;;;524673;28;1420;-69
2023/10/20 02:00:47;;;;;;;2.33;1.83;;;;;;;;;;524327;28;1455;-69
2023/10/20 02:01:03;;;;;;;2.60;2.00;;;;;;;;;;523846;28;1183;-69
2023/10/20 02:01:19;;;;;;;2.92;2.10;;;;;;;;;;525215;28;1321;-69
2023/10/20 02:01:34;;;;;;;3.37;1.90;;;;;;;;;;524102;28;1006;-70
2023/10/20 02:01:49;;;;;;;3.85;2.00;;;;;;;;;;523996;28;1468;-69
2023/10/20 02:02:04;;;;;;;3.70;2.30;;;;;;;;;;523364;28;1540;-69
2023/10/20 02:02:20;;;;;;;2.70;2.10;;;;;;;;;;523325;28;1456;-70
2023/10/20 02:02:35;;;;;;;2.83;2.03;;;;;;;;;;522605;28;1511;-69
2023/10/20 02:02:50;;;;;;;2.83;2.08;;;;;;;;;;523271;28;1825;-69
2023/10/20 02:03:05;;;;;;;2.70;1.97;;;;;;;;;;523465;28;1397;-70
2023/10/20 02:03:21;;;;;;;2.60;1.90;;;;;;;;;;523883;28;1139;-69
2023/10/20 02:03:36;;;;;;;2.60;2.10;;;;;;;;;;523826;28;1534;-69
2023/10/20 02:03:52;;;;;;;2.85;2.20;;;;;;;;;;523060;28;1087;-69
2023/10/20 02:04:07;;;;;;;3.50;2.30;;;;;;;;;;523539;28;1357;-69
2023/10/20 02:04:23;;;;;;;3.47;2.30;;;;;;;;;;523668;28;1138;-69
2023/10/20 02:04:38;;;;;;;2.87;2.20;;;;;;;;;;523651;28;1379;-69
2023/10/20 02:04:54;;;;;;;2.60;2.10;;;;;;;;;;523744;28;1113;-69
2023/10/20 02:05:09;;;;;;;2.53;2.00;;;;;;;;;;523549;28;826;-70
2023/10/20 02:05:25;;;;;;;2.67;1.90;;;;;;;;;;525333;28;1187;-70
2023/10/20 02:05:40;;;;;;;2.63;1.93;;;;;;;;;;525158;28;2048;-69
2023/10/20 02:05:55;;;;;;;2.50;1.80;;;;;;;;;;522357;28;1459;-70
2023/10/20 02:06:10;;;;;;;2.10;1.83;;;;;;;;;;521454;28;921;-69
2023/10/20 02:06:26;;;;;;;3.03;2.10;;;;;;;;;;518835;28;1171;-69
2023/10/20 02:06:42;;;;;;;3.50;2.20;;;;;;;;;;519400;28;1176;-69
2023/10/20 02:06:57;;;;;;;2.80;2.20;;;;;;;;;;519678;28;1152;-69
2023/10/20 02:07:12;;;;;;;3.23;2.20;;;;;;;;;;519099;28;1084;-69
2023/10/20 02:07:28;;;;;;;3.83;2.20;;;;;;;;;;519640;28;871;-70
2023/10/20 02:07:43;;;;;;;3.27;2.27;;;;;;;;;;521351;28;886;-69
2023/10/20 02:07:58;;;;;;;2.80;2.10;;;;;;;;;;519947;28;1302;-69
2023/10/20 02:08:15;;;;;;;2.80;2.20;;;;;;;;;;519813;28;982;-69
2023/10/20 02:08:30;;;;;;;3.67;2.53;;;;;;;;;;521441;28;1239;-69
2023/10/20 02:08:45;;;;;;;3.60;2.60;;;;;;;;;;521339;28;771;-69
2023/10/20 02:09:01;;;;;;;2.80;2.40;;;;;;;;;;521297;28;1270;-69
2023/10/20 02:09:17;;;;;;;3.40;2.60;;;;;;;;;;521251;28;1084;-69
2023/10/20 02:09:32;;;;;;;3.50;2.70;;;;;;;;;;521619;28;1474;-69
2023/10/20 02:09:47;;;;;;;3.20;2.70;;;;;;;;;;521406;28;973;-69
2023/10/20 02:10:03;;;;;;;3.47;2.70;;;;;;;;;;521301;28;1510;-67
2023/10/20 02:10:19;;;;;;;3.17;2.42;;;;;;;;;;521240;28;1080;-68
2023/10/20 02:10:35;;;;;;;2.92;2.22;;;;;;;;;;520628;28;1854;-69
2023/10/20 02:10:50;;;;;;;3.03;2.40;;;;;;;;;;520435;28;1334;-69
2023/10/20 02:11:05;;;;;;;3.23;2.60;;;;;;;;;;520013;28;977;-69
2023/10/20 02:11:21;;;;;;;3.00;2.60;;;;;;;;;;523200;28;1049;-69
2023/10/20 02:11:36;;;;;;;2.80;2.43;;;;;;;;;;525509;28;778;-68
2023/10/20 02:11:56;;;;;;;2.83;2.55;;;;;;;;;;522963;28;1064;-69
2023/10/20 02:12:13;;;;;;;3.22;2.75;;;;;;;;;;521446;28;752;-69
2023/10/20 02:12:28;;;;;;;3.10;2.67;;;;;;;;;;522810;28;1132;-69
2023/10/20 02:12:44;;;;;;;3.20;2.60;;;;;;;;;;523520;28;827;-69
2023/10/20 02:12:59;;;;;;;3.30;2.60;;;;;;;;;;521935;28;1009;-69
2023/10/20 02:13:14;;;;;;;3.30;2.77;;;;;;;;;;521642;28;815;-69
2023/10/20 02:13:30;;;;;;;4.45;2.63;;;;;;;;;;521194;28;1434;-69
2023/10/20 02:13:45;;;;;;;4.50;2.50;;;;;;;;;;521333;28;791;-69
2023/10/20 02:14:00;;;;;;;3.92;2.63;;;;;;;;;;521318;28;1057;-69
2023/10/20 02:14:16;;;;;;;3.80;2.60;;;;;;;;;;521393;28;1304;-69
2023/10/20 02:14:32;;;;;;;3.53;2.40;;;;;;;;;;522341;28;1773;-69
2023/10/20 02:14:47;;;;;;;4.65;2.70;;;;;;;;;;525027;28;1006;-69
2023/10/20 02:15:04;;;;;;;5.18;2.90;;;;;;;;;;523791;28;1095;-69
2023/10/20 02:15:19;;;;;;;4.25;2.80;;;;;;;;;;524491;28;1465;-69
2023/10/20 02:15:35;;;;;;;3.08;2.60;;;;;;;;;;524800;28;1175;-69
2023/10/20 02:15:50;;;;;;;3.60;2.57;;;;;;;;;;524200;28;1016;-69
2023/10/20 02:16:07;;;;;;;4.18;2.50;;;;;;;;;;524906;28;1325;-69
2023/10/20 02:16:22;;;;;;;3.42;2.60;;;;;;;;;;520335;28;1765;-69
2023/10/20 02:16:37;;;;;;;3.87;2.77;;;;;;;;;;521738;28;1055;-68
2023/10/20 02:16:53;;;;;;;3.47;2.55;;;;;;;;;;519396;28;1151;-69
2023/10/20 02:17:08;;;;;;;2.60;2.30;;;;;;;;;;520475;28;1395;-69
2023/10/20 02:17:23;;;;;;;3.83;2.40;;;;;;;;;;520939;28;2091;-69
2023/10/20 02:17:39;;;;;;;4.13;2.50;;;;;;;;;;523052;28;1910;-69
2023/10/20 02:17:54;;;;;;;3.27;2.60;;;;;;;;;;521042;28;1972;-69
2023/10/20 02:18:09;;;;;;;3.80;2.50;;;;;;;;;;524228;28;1993;-69
2023/10/20 02:18:24;;;;;;;3.60;2.40;;;;;;;;;;522259;28;929;-69
2023/10/20 02:18:40;;;;;;;3.23;2.37;;;;;;;;;;521573;28;981;-69
2023/10/20 02:18:55;;;;;;;3.60;2.50;;;;;;;;;;523079;28;1028;-69
2023/10/20 02:19:11;;;;;;;3.40;2.58;;;;;;;;;;523741;28;910;-69
2023/10/20 02:19:26;;;;;;;3.03;2.57;;;;;;;;;;523461;28;1117;-69
2023/10/20 02:19:41;;;;;;;3.90;2.50;;;;;;;;;;523443;28;846;-69
2023/10/20 02:19:57;;;;;;;3.72;2.45;;;;;;;;;;521070;28;1072;-69
2023/10/20 02:20:15;;;;;;;2.63;2.38;;;;;;;;;;519309;28;967;-69
2023/10/20 02:20:30;;;;;;;2.80;2.33;;;;;;;;;;519661;28;1316;-69
2023/10/20 02:20:55;;;;;;;2.75;2.33;;;;;;;;;;521069;28;1362;-69
2023/10/20 02:21:11;;;;;;;2.70;2.25;;;;;;;;;;519128;28;1173;-69
2023/10/20 02:21:26;;;;;;;2.87;2.33;;;;;;;;;;518322;28;993;-69
2023/10/20 02:21:41;;;;;;;2.60;2.30;;;;;;;;;;517191;28;855;-69
2023/10/20 02:21:59;;;;;;;2.87;2.40;;;;;;;;;;518270;28;1054;-69
2023/10/20 02:22:14;;;;;;;2.83;2.40;;;;;;;;;;519405;28;921;-69
2023/10/20 02:22:29;;;;;;;3.30;2.37;;;;;;;;;;519104;28;2057;-69
2023/10/20 02:22:45;;;;;;;3.35;2.35;;;;;;;;;;525420;28;850;-69
2023/10/20 02:23:00;;;;;;;2.90;2.23;;;;;;;;;;520878;28;1175;-69
2023/10/20 02:23:15;;;;;;;3.10;2.40;;;;;;;;;;521268;28;1049;-69
2023/10/20 02:23:31;;;;;;;3.40;2.60;;;;;;;;;;521408;28;807;-69
2023/10/20 02:23:47;;;;;;;3.20;2.40;;;;;;;;;;522321;28;1393;-69
2023/10/20 02:24:02;;;;;;;2.95;2.28;;;;;;;;;;520959;28;1286;-68
2023/10/20 02:24:18;;;;;;;3.35;2.42;;;;;;;;;;522376;28;1117;-69